Terminal Aerodrome Forecast
Issued by NWS

Home | Current Version | Previous Version | Graphics & Text | Print | Product List | Glossary On
Versions: 1 2 3 4 5 6 7 8 9 10 11 12 13 14 15 16
000
FTUS43 KGRB 202300
TAFATW
TAF
KATW 202325Z 2100/2124 19007KT P6SM SCT050
     FM210900 20005KT 5SM BR SCT200
     FM211400 20010G17KT P6SM SCT045 SCT120
      TEMPO 2116/2120 BKN045=

USA.gov is the U.S. government's official web portal to all federal, state and local government web resources and services.